createdAt,value
2023-03-16T00:00:47.723Z,-0.47
2023-03-16T00:02:49.199Z,-0.47
2023-03-16T00:04:50.770Z,-0.47
2023-03-16T00:06:52.327Z,-0.47
2023-03-16T00:08:58.860Z,-0.46
2023-03-16T00:11:00.390Z,-0.46
2023-03-16T00:13:02.708Z,-0.47
2023-03-16T00:15:04.627Z,-0.48
2023-03-16T00:17:06.597Z,-0.49
2023-03-16T00:19:08.050Z,-0.49
2023-03-16T00:21:09.985Z,-0.49
2023-03-16T00:23:11.934Z,-0.50
2023-03-16T00:25:14.655Z,-0.50
2023-03-16T00:27:17.336Z,-0.50
2023-03-16T00:29:18.890Z,-0.50
2023-03-16T00:31:20.636Z,-0.51
2023-03-16T00:33:23.052Z,-0.51
2023-03-16T00:35:24.715Z,-0.51
2023-03-16T00:37:27.819Z,-0.51
2023-03-16T00:39:29.299Z,-0.52
2023-03-16T00:41:31.114Z,-0.54
2023-03-16T00:43:40.831Z,-0.55
2023-03-16T00:45:44.783Z,-0.55
2023-03-16T00:47:46.375Z,-0.57
2023-03-16T00:49:47.830Z,-0.57
2023-03-16T00:51:49.351Z,-0.61
2023-03-16T00:53:50.918Z,-0.63
2023-03-16T00:55:53.537Z,-0.66
2023-03-16T00:57:55.079Z,-0.66
2023-03-16T00:59:56.515Z,-0.67
2023-03-16T01:01:57.986Z,-0.69
2023-03-16T01:04:02.430Z,-0.70
2023-03-16T01:06:10.350Z,-0.69
2023-03-16T01:08:11.946Z,-0.71
2023-03-16T01:10:13.691Z,-0.72
2023-03-16T01:12:19.167Z,-0.73
2023-03-16T01:14:22.181Z,-0.74
2023-03-16T01:16:23.721Z,-0.75
2023-03-16T01:18:26.037Z,-0.77
2023-03-16T01:20:27.683Z,-0.79
2023-03-16T01:22:29.278Z,-0.81
2023-03-16T01:24:31.396Z,-0.83
2023-03-16T01:26:32.883Z,-0.85
2023-03-16T01:28:34.720Z,-0.86
2023-03-16T01:30:36.282Z,-0.87
2023-03-16T01:32:38.450Z,-0.89
2023-03-16T01:34:39.990Z,-0.89
2023-03-16T01:36:46.851Z,-0.90
2023-03-16T01:38:48.421Z,-0.92
2023-03-16T01:40:51.807Z,-0.93
2023-03-16T01:43:02.784Z,-0.93
2023-03-16T01:45:06.300Z,-0.95
2023-03-16T01:47:07.939Z,-0.97
2023-03-16T01:49:16.831Z,-1.00
2023-03-16T01:51:27.848Z,-1.02
2023-03-16T01:53:29.376Z,-1.04
2023-03-16T01:55:31.360Z,-1.05
2023-03-16T01:57:37.066Z,-1.06
2023-03-16T01:59:41.414Z,-1.06
2023-03-16T02:01:43.842Z,-1.08
2023-03-16T02:03:46.029Z,-1.08
2023-03-16T02:05:56.648Z,-1.08
2023-03-16T02:07:58.620Z,-1.08
2023-03-16T02:10:03.049Z,-1.09
2023-03-16T02:12:05.209Z,-1.10
2023-03-16T02:14:10.966Z,-1.11
2023-03-16T02:16:19.296Z,-1.13
2023-03-16T02:18:23.058Z,-1.15
2023-03-16T02:20:34.455Z,-1.16
2023-03-16T02:22:39.568Z,-1.18
2023-03-16T02:24:42.117Z,-1.19
2023-03-16T02:26:48.295Z,-1.21
2023-03-16T02:29:14.181Z,-1.25
2023-03-16T02:31:17.230Z,-1.29
2023-03-16T02:33:21.264Z,-1.31
2023-03-16T02:35:22.999Z,-1.33
2023-03-16T02:37:24.561Z,-1.36
2023-03-16T02:39:26.190Z,-1.38
2023-03-16T02:41:27.688Z,-1.39
2023-03-16T02:43:34.892Z,-1.40
2023-03-16T02:45:53.548Z,-1.42
2023-03-16T02:47:54.995Z,-1.46
2023-03-16T02:49:56.494Z,-1.49
2023-03-16T02:51:57.976Z,-1.51
2023-03-16T02:53:59.503Z,-1.51
2023-03-16T02:56:03.024Z,-1.51
2023-03-16T02:58:04.790Z,-1.53
2023-03-16T03:00:14.546Z,-1.51
2023-03-16T03:02:16.241Z,-1.52
2023-03-16T03:04:17.894Z,-1.52
2023-03-16T03:06:19.428Z,-1.53
2023-03-16T03:08:22.418Z,-1.53
2023-03-16T03:10:24.390Z,-1.54
2023-03-16T03:12:25.878Z,-1.54
2023-03-16T03:14:28.549Z,-1.53
2023-03-16T03:16:31.473Z,-1.55
2023-03-16T03:18:34.639Z,-1.55
2023-03-16T03:20:36.204Z,-1.55
2023-03-16T03:22:37.661Z,-1.58
2023-03-16T03:24:39.119Z,-1.59
2023-03-16T03:26:40.650Z,-1.59
2023-03-16T03:28:43.289Z,-1.58
2023-03-16T03:30:45.028Z,-1.59
2023-03-16T03:32:46.744Z,-1.59
2023-03-16T03:34:48.552Z,-1.60
2023-03-16T03:36:49.990Z,-1.61
2023-03-16T03:38:51.441Z,-1.61
2023-03-16T03:40:53.857Z,-1.62
2023-03-16T03:42:55.351Z,-1.63
2023-03-16T03:44:56.877Z,-1.64
2023-03-16T03:46:58.445Z,-1.66
2023-03-16T03:49:03.733Z,-1.67
2023-03-16T03:51:06.700Z,-1.68
2023-03-16T03:53:08.252Z,-1.69
2023-03-16T03:55:10.723Z,-1.70
2023-03-16T03:57:12.285Z,-1.71
2023-03-16T03:59:13.793Z,-1.71
2023-03-16T04:01:15.275Z,-1.70
2023-03-16T04:03:17.615Z,-1.69
2023-03-16T04:05:19.195Z,-1.67
2023-03-16T04:07:20.873Z,-1.66
2023-03-16T04:09:22.345Z,-1.64
2023-03-16T04:11:23.818Z,-1.61
2023-03-16T04:13:25.380Z,-1.58
2023-03-16T04:15:27.277Z,-1.55
2023-03-16T04:17:28.729Z,-1.51
2023-03-16T04:19:30.438Z,-1.49
2023-03-16T04:21:32.189Z,-1.44
2023-03-16T04:23:34.767Z,-1.40
2023-03-16T04:25:38.568Z,-1.38
2023-03-16T04:27:40.564Z,-1.36
2023-03-16T04:29:42.456Z,-1.32
2023-03-16T04:31:44.814Z,-1.29
2023-03-16T04:33:46.391Z,-1.26
2023-03-16T04:35:48.527Z,-1.22
2023-03-16T04:37:50.054Z,-1.18
2023-03-16T04:39:51.565Z,-1.16
2023-03-16T04:41:52.995Z,-1.13
2023-03-16T04:43:54.433Z,-1.11
2023-03-16T04:45:55.948Z,-1.09
2023-03-16T04:47:57.407Z,-1.07
2023-03-16T04:49:58.854Z,-1.04
2023-03-16T04:52:00.964Z,-1.02
2023-03-16T04:54:02.455Z,-1.00
2023-03-16T04:56:04.182Z,-0.98
2023-03-16T04:58:05.708Z,-0.95
2023-03-16T05:00:19.827Z,-0.93
2023-03-16T05:02:21.373Z,-0.90
2023-03-16T05:04:24.596Z,-0.88
2023-03-16T05:06:26.062Z,-0.85
2023-03-16T05:08:27.537Z,-0.84
2023-03-16T05:10:29.382Z,-0.82
2023-03-16T05:12:31.081Z,-0.80
2023-03-16T05:14:32.622Z,-0.78
2023-03-16T05:16:34.082Z,-0.77
2023-03-16T05:18:35.554Z,-0.74
2023-03-16T05:20:37.515Z,-0.73
2023-03-16T05:22:43.866Z,-0.69
2023-03-16T05:24:45.350Z,-0.67
2023-03-16T05:26:46.804Z,-0.65
2023-03-16T05:28:48.237Z,-0.63
2023-03-16T05:30:49.739Z,-0.60
2023-03-16T05:32:51.511Z,-0.56
2023-03-16T05:34:55.879Z,-0.54
2023-03-16T05:36:57.388Z,-0.51
2023-03-16T05:38:59.415Z,-0.49
2023-03-16T05:41:04.561Z,-0.46
2023-03-16T05:43:07.144Z,-0.43
2023-03-16T05:45:09.303Z,-0.41
2023-03-16T05:47:10.911Z,-0.37
2023-03-16T05:49:13.059Z,-0.34
2023-03-16T05:51:14.534Z,-0.30
2023-03-16T05:53:16.015Z,-0.26
2023-03-16T05:55:18.711Z,-0.23
2023-03-16T05:57:20.237Z,-0.21
2023-03-16T05:59:21.724Z,-0.19
2023-03-16T06:01:24.259Z,-0.16
2023-03-16T06:03:26.010Z,-0.13
2023-03-16T06:05:28.612Z,-0.11
2023-03-16T06:07:30.109Z,-0.10
2023-03-16T06:09:31.563Z,-0.07
2023-03-16T06:11:33.111Z,-0.04
2023-03-16T06:13:34.918Z,-0.02
2023-03-16T06:15:36.438Z,-0.01
2023-03-16T06:17:39.701Z,0.03
2023-03-16T06:19:41.163Z,0.05
2023-03-16T06:21:42.901Z,0.08
2023-03-16T06:23:44.848Z,0.10
2023-03-16T06:25:49.837Z,0.13
2023-03-16T06:27:51.349Z,0.16
2023-03-16T06:29:53.141Z,0.19
2023-03-16T06:31:54.874Z,0.24
2023-03-16T06:33:56.404Z,0.28
2023-03-16T06:35:57.940Z,0.32
2023-03-16T06:37:59.767Z,0.40
2023-03-16T06:40:01.717Z,0.45
2023-03-16T06:42:04.687Z,0.52
2023-03-16T06:44:06.198Z,0.58
2023-03-16T06:46:07.865Z,0.63
2023-03-16T06:48:09.927Z,0.68
2023-03-16T06:50:12.004Z,0.72
2023-03-16T06:52:14.196Z,0.76
2023-03-16T06:54:15.743Z,0.81
2023-03-16T06:56:17.251Z,0.85
2023-03-16T06:58:18.926Z,0.89
2023-03-16T07:00:21.609Z,0.92
2023-03-16T07:02:23.679Z,0.97
2023-03-16T07:04:25.410Z,1.00
2023-03-16T07:06:27.055Z,1.07
2023-03-16T07:08:29.167Z,1.12
2023-03-16T07:10:31.614Z,1.18
2023-03-16T07:12:33.103Z,1.24
2023-03-16T07:14:34.554Z,1.30
2023-03-16T07:16:36.087Z,1.36
2023-03-16T07:18:40.476Z,1.42
2023-03-16T07:20:42.221Z,1.50
2023-03-16T07:22:43.927Z,1.57
2023-03-16T07:24:45.383Z,1.65
2023-03-16T07:26:46.838Z,1.71
2023-03-16T07:28:48.316Z,1.78
2023-03-16T07:31:02.843Z,1.85
2023-03-16T07:33:05.464Z,1.91
2023-03-16T07:35:11.761Z,1.98
2023-03-16T07:37:14.233Z,2.08
2023-03-16T07:39:17.690Z,2.14
2023-03-16T07:41:19.388Z,2.22
2023-03-16T07:43:20.850Z,2.29
2023-03-16T07:45:22.401Z,2.37
2023-03-16T07:47:26.555Z,2.45
2023-03-16T07:49:28.239Z,2.53
2023-03-16T07:51:29.694Z,2.59
2023-03-16T07:53:32.097Z,2.68
2023-03-16T07:55:36.445Z,2.76
2023-03-16T07:57:39.276Z,2.84
2023-03-16T07:59:41.598Z,2.92
2023-03-16T08:01:43.236Z,3.00
2023-03-16T08:03:44.876Z,3.07
2023-03-16T08:05:46.392Z,3.14
2023-03-16T08:07:47.972Z,3.23
2023-03-16T08:09:49.432Z,3.34
2023-03-16T08:11:51.009Z,3.43
2023-03-16T08:13:54.487Z,3.51
2023-03-16T08:15:58.862Z,3.58
2023-03-16T08:18:04.699Z,3.64
2023-03-16T08:20:10.809Z,3.71
2023-03-16T08:22:12.558Z,3.76
2023-03-16T08:24:14.086Z,3.83
2023-03-16T08:26:19.635Z,3.90
2023-03-16T08:28:21.735Z,3.97
2023-03-16T08:30:23.289Z,4.02
2023-03-16T08:32:24.804Z,4.09
2023-03-16T08:34:27.742Z,4.16
2023-03-16T08:36:30.248Z,4.25
2023-03-16T08:38:32.235Z,4.33
2023-03-16T08:40:34.897Z,4.43
2023-03-16T08:42:38.809Z,4.50
2023-03-16T08:44:40.268Z,4.57
2023-03-16T08:46:42.436Z,4.67
2023-03-16T08:48:44.055Z,4.77
2023-03-16T08:50:46.252Z,4.84
2023-03-16T08:52:49.073Z,4.90
2023-03-16T08:55:02.485Z,4.99
2023-03-16T08:57:05.002Z,5.08
2023-03-16T08:59:07.789Z,5.17
2023-03-16T09:01:12.588Z,5.27
2023-03-16T09:03:14.075Z,5.34
2023-03-16T09:05:16.086Z,5.37
2023-03-16T09:07:18.724Z,5.42
2023-03-16T09:09:20.229Z,5.46
2023-03-16T09:11:22.294Z,5.47
2023-03-16T09:13:24.535Z,5.54
2023-03-16T09:15:26.784Z,5.60
2023-03-16T09:17:28.609Z,5.66
2023-03-16T09:19:47.844Z,5.71
2023-03-16T09:21:51.887Z,5.78
2023-03-16T09:23:54.814Z,5.89
2023-03-16T09:26:01.912Z,6.02
2023-03-16T09:28:03.500Z,6.13
2023-03-16T09:30:07.475Z,6.22
2023-03-16T09:32:09.899Z,6.25
2023-03-16T09:34:11.861Z,6.35
2023-03-16T09:36:14.607Z,6.44
2023-03-16T09:38:17.857Z,6.49
2023-03-16T09:40:30.562Z,6.56
2023-03-16T09:42:45.243Z,6.56
2023-03-16T09:44:58.406Z,6.60
2023-03-16T09:47:03.565Z,6.62
2023-03-16T09:49:05.282Z,6.63
2023-03-16T09:51:14.506Z,6.63
2023-03-16T09:53:36.601Z,6.66
2023-03-16T09:55:39.340Z,6.76
2023-03-16T09:57:44.607Z,6.89
2023-03-16T09:59:46.121Z,6.94
2023-03-16T10:01:59.722Z,6.96
2023-03-16T10:04:13.258Z,6.99
2023-03-16T10:06:16.176Z,7.00
2023-03-16T10:08:28.627Z,7.02
2023-03-16T10:10:45.099Z,7.00
2023-03-16T10:12:51.482Z,7.00
2023-03-16T10:14:58.190Z,7.01
2023-03-16T10:17:03.158Z,7.08
2023-03-16T10:19:18.621Z,7.12
2023-03-16T10:21:21.290Z,7.19
2023-03-16T10:23:26.675Z,7.28
2023-03-16T10:25:43.012Z,7.30
2023-03-16T10:27:46.038Z,7.32
2023-03-16T10:29:47.737Z,7.37
2023-03-16T10:31:49.319Z,7.47
2023-03-16T10:33:55.698Z,7.63
2023-03-16T10:36:05.595Z,7.76
2023-03-16T10:38:47.042Z,7.90
2023-03-16T10:40:52.760Z,8.04
2023-03-16T10:42:54.273Z,8.08
2023-03-16T10:45:01.904Z,8.11
2023-03-16T10:47:05.843Z,8.10
2023-03-16T10:49:20.107Z,8.11
2023-03-16T10:51:26.097Z,8.09
2023-03-16T10:53:32.931Z,8.06
2023-03-16T10:55:43.632Z,8.17
2023-03-16T10:57:55.722Z,8.29
2023-03-16T11:00:20.849Z,8.32
2023-03-16T11:02:30.507Z,8.42
2023-03-16T11:04:33.347Z,8.57
2023-03-16T11:06:34.859Z,8.73
2023-03-16T11:08:41.388Z,8.76
2023-03-16T11:10:55.461Z,8.74
2023-03-16T11:13:14.775Z,8.86
2023-03-16T11:15:25.895Z,8.92
2023-03-16T11:17:38.315Z,9.05
2023-03-16T11:19:51.420Z,9.08
2023-03-16T11:22:03.987Z,9.15
2023-03-16T11:24:14.762Z,9.24
2023-03-16T11:26:27.742Z,9.19
2023-03-16T11:28:36.592Z,9.19
2023-03-16T11:30:51.810Z,9.37
2023-03-16T11:32:54.061Z,9.66
2023-03-16T11:34:55.664Z,10.09
2023-03-16T11:37:05.856Z,10.63
2023-03-16T11:39:31.150Z,11.10
2023-03-16T11:41:39.220Z,11.22
2023-03-16T11:43:40.671Z,11.45
2023-03-16T11:45:51.827Z,11.81
2023-03-16T11:48:31.037Z,12.13
2023-03-16T11:50:58.596Z,12.37
2023-03-16T11:53:25.741Z,11.95
2023-03-16T11:55:37.898Z,11.53
2023-03-16T11:57:51.816Z,11.74
2023-03-16T12:00:31.656Z,12.03
2023-03-16T12:03:08.767Z,12.24
2023-03-16T12:05:34.576Z,12.30
2023-03-16T12:07:45.057Z,12.29
2023-03-16T12:10:06.164Z,12.30
2023-03-16T12:12:29.917Z,12.67
2023-03-16T12:15:14.513Z,12.72
2023-03-16T12:17:27.241Z,12.44
2023-03-16T12:19:53.640Z,12.24
2023-03-16T12:22:07.741Z,11.97
2023-03-16T12:24:22.116Z,11.88
2023-03-16T12:26:30.077Z,11.62
2023-03-16T12:28:33.423Z,11.72
2023-03-16T12:31:01.844Z,11.57
2023-03-16T12:33:35.001Z,11.38
2023-03-16T12:35:48.359Z,10.95
2023-03-16T12:38:20.545Z,10.67
2023-03-16T12:40:28.272Z,10.54
2023-03-16T12:42:42.767Z,10.41
2023-03-16T12:45:07.332Z,10.49
2023-03-16T12:47:13.079Z,10.60
2023-03-16T12:49:15.015Z,10.61
2023-03-16T12:51:17.332Z,10.72
2023-03-16T12:53:40.745Z,10.64
2023-03-16T12:55:45.188Z,10.47
2023-03-16T12:57:49.842Z,10.48
2023-03-16T12:59:58.324Z,10.51
2023-03-16T13:02:00.913Z,10.47
2023-03-16T13:04:10.737Z,10.45
2023-03-16T13:06:24.124Z,10.49
2023-03-16T13:08:25.909Z,10.42
2023-03-16T13:10:28.709Z,10.30
2023-03-16T13:12:37.038Z,10.24
2023-03-16T13:14:44.232Z,10.25
2023-03-16T13:16:47.784Z,10.20
2023-03-16T13:18:49.613Z,10.15
2023-03-16T13:20:57.901Z,10.03
2023-03-16T13:23:18.338Z,10.05
2023-03-16T13:25:22.744Z,10.16
2023-03-16T13:27:30.716Z,10.18
2023-03-16T13:29:32.995Z,10.19
2023-03-16T13:31:41.743Z,10.19
2023-03-16T13:33:43.221Z,10.05
2023-03-16T13:35:46.287Z,9.97
2023-03-16T13:37:49.281Z,9.92
2023-03-16T13:39:59.718Z,9.92
2023-03-16T13:42:16.896Z,9.79
2023-03-16T13:44:18.808Z,9.81
2023-03-16T13:46:29.631Z,9.80
2023-03-16T13:48:37.550Z,9.76
2023-03-16T13:50:41.334Z,9.79
2023-03-16T13:52:57.484Z,9.89
2023-03-16T13:55:01.916Z,9.93
2023-03-16T13:57:07.191Z,9.96
2023-03-16T13:59:10.610Z,9.98
2023-03-16T14:01:32.769Z,10.01
2023-03-16T14:03:37.010Z,10.12
2023-03-16T14:05:39.309Z,10.07
2023-03-16T14:07:40.770Z,9.98
2023-03-16T14:09:42.378Z,9.99
2023-03-16T14:11:44.704Z,9.99
2023-03-16T14:13:53.576Z,9.99
2023-03-16T14:16:17.628Z,9.85
2023-03-16T14:18:23.233Z,9.82
2023-03-16T14:20:26.007Z,9.82
2023-03-16T14:22:37.170Z,9.80
2023-03-16T14:24:40.567Z,9.80
2023-03-16T14:26:47.330Z,9.74
2023-03-16T14:29:05.133Z,9.76
2023-03-16T14:31:11.133Z,9.80
2023-03-16T14:33:42.713Z,9.71
2023-03-16T14:35:44.821Z,9.62
2023-03-16T14:37:46.645Z,9.55
2023-03-16T14:40:01.659Z,9.51
2023-03-16T14:42:06.788Z,9.57
2023-03-16T14:44:21.107Z,9.72
2023-03-16T14:46:43.104Z,9.89
2023-03-16T14:48:45.752Z,10.01
2023-03-16T14:50:57.505Z,10.18
2023-03-16T14:52:59.870Z,10.25
2023-03-16T14:55:05.610Z,10.34
2023-03-16T14:57:07.206Z,10.46
2023-03-16T14:59:09.791Z,10.48
2023-03-16T15:01:17.992Z,10.50
2023-03-16T15:03:23.956Z,10.41
2023-03-16T15:05:32.884Z,10.33
2023-03-16T15:07:41.259Z,10.24
2023-03-16T15:09:43.774Z,10.13
2023-03-16T15:11:45.254Z,10.15
2023-03-16T15:13:48.066Z,10.20
2023-03-16T15:15:49.602Z,10.13
2023-03-16T15:17:52.574Z,10.08
2023-03-16T15:19:54.514Z,10.02
2023-03-16T15:22:04.107Z,9.96
2023-03-16T15:24:05.844Z,9.88
2023-03-16T15:26:13.862Z,9.77
2023-03-16T15:28:17.617Z,9.72
2023-03-16T15:30:22.428Z,9.69
2023-03-16T15:32:24.091Z,9.67
2023-03-16T15:34:27.347Z,9.64
2023-03-16T15:36:28.830Z,9.65
2023-03-16T15:38:33.466Z,9.68
2023-03-16T15:40:35.780Z,9.75
2023-03-16T15:42:37.221Z,9.73
2023-03-16T15:44:38.674Z,9.71
2023-03-16T15:46:40.193Z,9.70
2023-03-16T15:48:42.493Z,9.70
2023-03-16T15:50:55.118Z,9.68
2023-03-16T15:53:00.972Z,9.59
2023-03-16T15:55:07.708Z,9.59
2023-03-16T15:57:10.775Z,9.56
2023-03-16T15:59:18.501Z,9.56
2023-03-16T16:01:27.925Z,9.53
2023-03-16T16:03:29.614Z,9.55
2023-03-16T16:05:31.617Z,9.53
2023-03-16T16:07:33.124Z,9.44
2023-03-16T16:09:37.738Z,9.39
2023-03-16T16:11:41.249Z,9.37
2023-03-16T16:13:45.168Z,9.35
2023-03-16T16:15:47.185Z,9.30
2023-03-16T16:18:09.989Z,9.31
2023-03-16T16:20:18.755Z,9.24
2023-03-16T16:22:20.368Z,9.18
2023-03-16T16:24:22.553Z,9.17
2023-03-16T16:26:34.316Z,9.15
2023-03-16T16:28:43.355Z,9.12
2023-03-16T16:30:45.471Z,9.11
2023-03-16T16:32:47.691Z,9.09
2023-03-16T16:35:03.436Z,9.09
2023-03-16T16:37:05.941Z,9.03
2023-03-16T16:39:08.074Z,8.99
2023-03-16T16:41:14.759Z,8.98
2023-03-16T16:43:39.067Z,8.98
2023-03-16T16:45:40.566Z,8.93
2023-03-16T16:47:42.151Z,8.94
2023-03-16T16:49:43.621Z,8.90
2023-03-16T16:51:45.807Z,8.86
2023-03-16T16:53:47.961Z,8.84
2023-03-16T16:55:49.567Z,8.80
2023-03-16T16:57:54.439Z,8.77
2023-03-16T16:59:56.894Z,8.77
2023-03-16T17:02:00.252Z,8.76
2023-03-16T17:04:02.591Z,8.75
2023-03-16T17:06:04.391Z,8.77
2023-03-16T17:08:06.467Z,8.74
2023-03-16T17:10:09.766Z,8.73
2023-03-16T17:12:18.008Z,8.70
2023-03-16T17:14:21.401Z,8.67
2023-03-16T17:16:23.288Z,8.65
2023-03-16T17:18:25.061Z,8.58
2023-03-16T17:20:27.281Z,8.54
2023-03-16T17:22:30.290Z,8.48
2023-03-16T17:24:31.980Z,8.44
2023-03-16T17:26:40.214Z,8.37
2023-03-16T17:28:56.992Z,8.32
2023-03-16T17:30:58.527Z,8.30
2023-03-16T17:33:12.389Z,8.22
2023-03-16T17:35:15.711Z,8.16
2023-03-16T17:37:19.840Z,8.09
2023-03-16T17:39:27.072Z,8.03
2023-03-16T17:41:32.963Z,7.97
2023-03-16T17:43:34.808Z,7.91
2023-03-16T17:45:36.566Z,7.87
2023-03-16T17:47:39.559Z,7.85
2023-03-16T17:49:41.223Z,7.80
2023-03-16T17:51:44.005Z,7.83
2023-03-16T17:53:45.512Z,7.74
2023-03-16T17:55:47.245Z,7.67
2023-03-16T17:57:50.704Z,7.66
2023-03-16T17:59:52.243Z,7.64
2023-03-16T18:01:53.821Z,7.61
2023-03-16T18:03:56.617Z,7.56
2023-03-16T18:05:58.132Z,7.52
2023-03-16T18:08:14.280Z,7.44
2023-03-16T18:10:24.920Z,7.43
2023-03-16T18:12:27.207Z,7.39
2023-03-16T18:14:35.522Z,7.35
2023-03-16T18:16:37.110Z,7.29
2023-03-16T18:18:40.147Z,7.25
2023-03-16T18:20:41.607Z,7.23
2023-03-16T18:22:43.925Z,7.19
2023-03-16T18:24:46.463Z,7.17
2023-03-16T18:26:48.008Z,7.12
2023-03-16T18:28:50.494Z,7.08
2023-03-16T18:30:52.786Z,7.00
2023-03-16T18:32:55.430Z,7.00
2023-03-16T18:34:58.033Z,7.00
2023-03-16T18:37:04.131Z,6.98
2023-03-16T18:39:18.906Z,6.96
2023-03-16T18:41:23.324Z,6.89
2023-03-16T18:43:27.184Z,6.87
2023-03-16T18:45:29.838Z,6.84
2023-03-16T18:47:32.607Z,6.81
2023-03-16T18:49:36.682Z,6.78
2023-03-16T18:51:38.319Z,6.73
2023-03-16T18:53:39.771Z,6.73
2023-03-16T18:55:44.959Z,6.69
2023-03-16T18:57:50.409Z,6.66
2023-03-16T18:59:52.506Z,6.63
2023-03-16T19:01:54.310Z,6.57
2023-03-16T19:03:57.255Z,6.56
2023-03-16T19:06:00.907Z,6.52
2023-03-16T19:08:05.021Z,6.50
2023-03-16T19:10:20.580Z,6.45
2023-03-16T19:12:23.035Z,6.42
2023-03-16T19:14:28.249Z,6.40
2023-03-16T19:16:29.946Z,6.36
2023-03-16T19:18:31.558Z,6.30
2023-03-16T19:20:34.911Z,6.28
2023-03-16T19:22:36.558Z,6.25
2023-03-16T19:24:47.233Z,6.24
2023-03-16T19:26:48.870Z,6.23
2023-03-16T19:28:51.027Z,6.23
2023-03-16T19:30:52.487Z,6.18
2023-03-16T19:32:55.111Z,6.21
2023-03-16T19:34:56.891Z,6.23
2023-03-16T19:36:58.349Z,6.21
2023-03-16T19:39:00.176Z,6.20
2023-03-16T19:41:01.639Z,6.21
2023-03-16T19:43:03.153Z,6.18
2023-03-16T19:45:05.423Z,6.19
2023-03-16T19:47:33.779Z,6.17
2023-03-16T19:49:35.355Z,6.16
2023-03-16T19:51:36.820Z,6.14
2023-03-16T19:53:38.347Z,6.11
2023-03-16T19:55:39.866Z,6.12
2023-03-16T19:57:42.507Z,6.12
2023-03-16T19:59:47.718Z,6.12
2023-03-16T20:01:49.254Z,6.12
2023-03-16T20:03:53.815Z,6.14
2023-03-16T20:05:55.280Z,6.14
2023-03-16T20:07:58.506Z,6.12
2023-03-16T20:10:00.147Z,6.14
2023-03-16T20:12:01.936Z,6.14
2023-03-16T20:14:04.643Z,6.12
2023-03-16T20:16:06.737Z,6.13
2023-03-16T20:18:16.344Z,6.12
2023-03-16T20:20:24.308Z,6.12
2023-03-16T20:22:28.445Z,6.11
2023-03-16T20:24:29.937Z,6.12
2023-03-16T20:26:32.807Z,6.12
2023-03-16T20:28:36.564Z,6.10
2023-03-16T20:30:39.180Z,6.10
2023-03-16T20:32:42.904Z,6.10
2023-03-16T20:34:44.973Z,6.11
2023-03-16T20:36:46.516Z,6.07
2023-03-16T20:38:48.440Z,6.08
2023-03-16T20:40:52.617Z,6.08
2023-03-16T20:42:54.116Z,6.06
2023-03-16T20:44:56.322Z,6.07
2023-03-16T20:46:57.840Z,6.06
2023-03-16T20:49:03.485Z,6.08
2023-03-16T20:51:05.121Z,6.08
2023-03-16T20:53:07.111Z,6.10
2023-03-16T20:55:13.039Z,6.06
2023-03-16T20:57:26.127Z,6.05
2023-03-16T20:59:30.001Z,6.05
2023-03-16T21:01:32.141Z,6.06
2023-03-16T21:03:33.703Z,6.02
2023-03-16T21:05:35.655Z,6.02
2023-03-16T21:07:37.122Z,5.99
2023-03-16T21:09:38.601Z,6.01
2023-03-16T21:11:43.423Z,6.00
2023-03-16T21:13:44.903Z,5.99
2023-03-16T21:15:49.721Z,5.97
2023-03-16T21:17:57.391Z,5.96
2023-03-16T21:20:00.260Z,5.94
2023-03-16T21:22:02.218Z,5.93
2023-03-16T21:24:03.849Z,5.92
2023-03-16T21:26:05.663Z,5.91
2023-03-16T21:28:07.310Z,5.87
2023-03-16T21:30:37.199Z,5.86
2023-03-16T21:32:38.801Z,5.81
2023-03-16T21:34:40.324Z,5.78
2023-03-16T21:36:44.286Z,5.76
2023-03-16T21:38:47.100Z,5.73
2023-03-16T21:40:49.071Z,5.70
2023-03-16T21:42:50.594Z,5.68
2023-03-16T21:44:52.390Z,5.63
2023-03-16T21:46:53.983Z,5.61
2023-03-16T21:48:55.797Z,5.60
2023-03-16T21:50:57.395Z,5.57
2023-03-16T21:52:59.486Z,5.51
2023-03-16T21:55:01.082Z,5.48
2023-03-16T21:57:11.762Z,5.46
2023-03-16T21:59:13.645Z,5.43
2023-03-16T22:01:25.256Z,5.42
2023-03-16T22:03:44.200Z,5.36
2023-03-16T22:05:52.915Z,5.35
2023-03-16T22:07:54.411Z,5.30
2023-03-16T22:09:56.685Z,5.29
2023-03-16T22:11:58.227Z,5.27
2023-03-16T22:13:59.821Z,5.26
2023-03-16T22:16:02.266Z,5.24
2023-03-16T22:18:15.271Z,5.25
2023-03-16T22:20:21.723Z,5.25
2023-03-16T22:22:23.205Z,5.21
2023-03-16T22:24:27.938Z,5.22
2023-03-16T22:26:29.551Z,5.23
2023-03-16T22:28:31.678Z,5.24
2023-03-16T22:30:33.203Z,5.25
2023-03-16T22:32:34.710Z,5.27
2023-03-16T22:34:44.135Z,5.28
2023-03-16T22:36:45.616Z,5.28
2023-03-16T22:38:57.965Z,5.30
2023-03-16T22:40:59.678Z,5.31
2023-03-16T22:43:04.753Z,5.30
2023-03-16T22:45:21.396Z,5.29
2023-03-16T22:47:26.411Z,5.28
2023-03-16T22:49:28.345Z,5.28
2023-03-16T22:51:33.815Z,5.23
2023-03-16T22:53:42.344Z,5.22
2023-03-16T22:55:44.746Z,5.20
2023-03-16T22:57:47.120Z,5.19
2023-03-16T22:59:50.382Z,5.16
2023-03-16T23:01:52.109Z,5.14
2023-03-16T23:03:53.749Z,5.14
2023-03-16T23:05:55.743Z,5.13
2023-03-16T23:08:00.937Z,5.11
2023-03-16T23:10:02.419Z,5.13
2023-03-16T23:12:05.698Z,5.10
2023-03-16T23:14:16.898Z,5.10
2023-03-16T23:16:24.522Z,5.10
2023-03-16T23:18:26.851Z,5.09
2023-03-16T23:20:31.748Z,5.07
2023-03-16T23:22:33.372Z,5.07
2023-03-16T23:24:36.072Z,5.07
2023-03-16T23:26:38.110Z,5.07
2023-03-16T23:28:39.749Z,5.05
2023-03-16T23:30:41.758Z,5.05
2023-03-16T23:32:44.333Z,5.04
2023-03-16T23:34:45.980Z,5.04
2023-03-16T23:36:47.551Z,5.03
2023-03-16T23:38:50.126Z,5.02
2023-03-16T23:40:51.603Z,5.01
2023-03-16T23:42:54.584Z,5.01
2023-03-16T23:44:56.321Z,5.01
2023-03-16T23:46:59.827Z,5.02
2023-03-16T23:49:05.150Z,5.01
2023-03-16T23:51:07.838Z,5.00
2023-03-16T23:53:17.529Z,5.00
2023-03-16T23:55:19.395Z,4.99
2023-03-16T23:57:20.989Z,4.98
2023-03-16T23:59:23.519Z,4.97
